Time;durP1;ratioP1;P1;durP2;ratioP2;P2;SDS_P1;SDS_P2;PMS_P1;PMS_P2;Temp;Humidity;BMP_temperature;BMP_pressure;BME280_temperature;BME280_humidity;BME280_pressure;Samples;Min_cycle;Max_cycle;Signal;HPM_P1;HPM_P2
2022/10/17 00:08:18;;;;;;;0.80;0.80;;;;;;;11.59;65.81;101827.13;18245843;32;20098;-57
2022/10/17 00:18:22;;;;;;;0.88;0.88;;;;;;;11.55;66.09;101833.16;18246688;32;20089;-56
2022/10/17 00:28:26;;;;;;;0.40;0.40;;;;;;;11.47;66.34;101822.56;18245247;32;20138;-56
2022/10/17 00:38:29;;;;;;;0.70;0.70;;;;;;;11.52;65.81;101826.13;18246564;32;20430;-56
2022/10/17 00:48:34;;;;;;;1.02;0.95;;;;;;;11.28;66.60;101828.31;18245452;32;20101;-56
2022/10/17 00:58:37;;;;;;;0.50;0.50;;;;;;;11.24;65.83;101830.88;18245060;32;20089;-56
2022/10/17 01:08:41;;;;;;;0.40;0.40;;;;;;;11.14;66.73;101828.97;18245033;32;20086;-57
2022/10/17 01:18:53;;;;;;;1.17;0.93;;;;;;;11.21;65.94;101825.63;18245655;32;20093;-57
2022/10/17 01:29:24;;;;;;;0.37;0.37;;;;;;;11.12;65.67;101825.44;18244356;32;20101;-57
2022/10/17 01:39:35;;;;;;;0.90;0.85;;;;;;;11.01;66.16;101827.84;18231739;32;20402;-56
2022/10/17 01:49:43;;;;;;;0.50;0.50;;;;;;;10.81;66.27;101827.44;18243964;32;20100;-56
2022/10/17 01:59:49;;;;;;;1.05;0.82;;;;;;;10.80;66.40;101830.91;18242173;32;20101;-56
2022/10/17 02:09:52;;;;;;;0.88;0.88;;;;;;;10.72;66.60;101837.72;18243371;32;20093;-56
2022/10/17 02:20:06;;;;;;;1.35;1.25;;;;;;;10.76;66.47;101845.66;18290901;32;20165;-56
2022/10/17 02:30:12;;;;;;;0.95;0.88;;;;;;;10.79;65.54;101850.06;18306163;32;20116;-56
2022/10/17 02:40:18;;;;;;;0.70;0.70;;;;;;;10.43;67.17;101856.25;18305398;32;20117;-56
2022/10/17 02:50:28;;;;;;;0.70;0.70;;;;;;;10.54;66.79;101860.87;18305449;32;20109;-56
2022/10/17 03:00:33;;;;;;;0.60;0.60;;;;;;;10.39;67.27;101861.41;18306186;32;20204;-56
2022/10/17 03:10:36;;;;;;;0.40;0.40;;;;;;;10.28;67.40;101866.38;18304843;32;20149;-57
2022/10/17 03:20:40;;;;;;;0.60;0.57;;;;;;;10.34;66.89;101875.19;18304537;32;20093;-56
2022/10/17 03:30:44;;;;;;;0.60;0.60;;;;;;;10.34;67.32;101880.41;18303858;32;20119;-56
2022/10/17 03:40:56;;;;;;;0.60;0.60;;;;;;;10.36;66.53;101899.59;18302304;32;20090;-56
2022/10/17 03:51:00;;;;;;;0.62;0.62;;;;;;;10.21;66.98;101907.97;18303213;32;20104;-56
2022/10/17 04:01:05;;;;;;;0.50;0.50;;;;;;;9.97;67.26;101919.59;18302720;32;20149;-56
2022/10/17 04:11:10;;;;;;;0.60;0.60;;;;;;;10.18;66.76;101919.19;18302207;32;20110;-56
2022/10/17 04:21:15;;;;;;;0.30;0.30;;;;;;;10.10;66.47;101924.25;18301474;32;20149;-56
2022/10/17 04:31:18;;;;;;;1.50;1.40;;;;;;;10.14;66.23;101925.19;18300499;32;20484;-56
2022/10/17 04:41:23;;;;;;;0.37;0.37;;;;;;;10.14;66.08;101922.59;18299872;32;20621;-56
2022/10/17 04:51:26;;;;;;;0.85;0.85;;;;;;;10.01;66.41;101944.88;18305261;32;20151;-56
2022/10/17 05:01:30;;;;;;;0.68;0.68;;;;;;;10.09;66.03;101943.34;18306247;32;20112;-56
2022/10/17 05:11:33;;;;;;;0.57;0.57;;;;;;;9.96;66.16;101949.13;18306470;32;20101;-56
2022/10/17 05:21:38;;;;;;;2.50;1.73;;;;;;;9.66;66.95;101970.94;18307741;32;20109;-56
2022/10/17 05:31:41;;;;;;;1.30;1.20;;;;;;;9.48;67.98;101973.94;18307486;32;20529;-56
2022/10/17 05:41:46;;;;;;;0.55;0.55;;;;;;;9.65;67.38;101984.81;18306465;32;20098;-57
2022/10/17 05:51:49;;;;;;;0.43;0.43;;;;;;;9.95;67.06;101995.19;18306268;32;20139;-56
2022/10/17 06:01:54;;;;;;;1.92;1.60;;;;;;;9.99;67.56;102009.19;18305197;32;20410;-56
2022/10/17 06:11:57;;;;;;;0.85;0.85;;;;;;;10.36;67.43;102025.78;18304804;32;20089;-56
2022/10/17 06:22:02;;;;;;;1.30;1.20;;;;;;;10.96;68.30;102044.63;18299602;32;20098;-57
2022/10/17 06:32:05;;;;;;;0.98;0.93;;;;;;;11.42;67.56;102061.28;18301994;32;20123;-57
2022/10/17 06:42:14;;;;;;;4.87;2.55;;;;;;;12.28;68.65;102062.09;18303525;32;20121;-56
2022/10/17 06:52:17;;;;;;;8.25;5.18;;;;;;;14.01;66.65;102069.72;18304973;32;20112;-56
2022/10/17 07:02:22;;;;;;;4.93;2.58;;;;;;;16.32;60.08;102070.13;18305088;32;20119;-56
2022/10/17 07:12:26;;;;;;;1.05;0.85;;;;;;;18.52;51.96;102075.44;18302042;32;20151;-57
2022/10/17 07:22:30;;;;;;;0.30;0.30;;;;;;;18.97;49.70;102095.31;18303187;32;20227;-57
2022/10/17 07:32:34;;;;;;;0.30;0.30;;;;;;;18.25;51.12;102097.72;18300797;32;20437;-58
2022/10/17 07:42:39;;;;;;;2.08;1.37;;;;;;;18.66;50.48;102096.50;18301137;32;20156;-57
2022/10/17 07:52:42;;;;;;;0.45;0.28;;;;;;;18.17;51.79;102103.91;18302725;32;20393;-58
2022/10/17 08:02:47;;;;;;;0.65;0.50;;;;;;;18.08;52.03;102108.41;18301841;32;20123;-57
2022/10/17 08:12:50;;;;;;;0.20;0.20;;;;;;;17.92;51.95;102105.81;18301419;32;20101;-57
2022/10/17 08:22:55;;;;;;;2.40;1.58;;;;;;;18.10;52.00;102118.06;18301762;32;20145;-57
2022/10/17 08:32:58;;;;;;;0.30;0.30;;;;;;;18.46;48.96;102111.66;18308824;32;20104;-57
2022/10/17 08:43:14;;;;;;;0.20;0.20;;;;;;;17.93;50.32;102117.28;18308689;32;20117;-57
2022/10/17 08:53:21;;;;;;;0.10;0.10;;;;;;;18.24;47.86;102120.59;18307774;32;22078;-57
2022/10/17 09:03:40;;;;;;;0.20;0.20;;;;;;;19.51;46.55;102110.63;18309416;32;20113;-57
2022/10/17 09:13:59;;;;;;;0.45;0.43;;;;;;;19.16;45.40;102104.00;18309064;32;20587;-57
2022/10/17 09:24:09;;;;;;;0.10;0.10;;;;;;;20.66;41.78;102101.00;18244813;32;20102;-57
2022/10/17 09:34:18;;;;;;;0.20;0.20;;;;;;;20.63;43.42;102090.44;18243221;32;20094;-57
2022/10/17 09:44:29;;;;;;;0.30;0.30;;;;;;;20.62;42.22;102091.34;18244269;32;20152;-57
2022/10/17 09:54:42;;;;;;;0.65;0.30;;;;;;;20.45;42.50;102093.41;18245082;32;20115;-57
2022/10/17 10:04:55;;;;;;;0.10;0.10;;;;;;;20.71;41.54;102086.78;18243604;32;20125;-57
2022/10/17 10:15:33;;;;;;;0.17;0.17;;;;;;;20.76;42.51;102091.09;18261264;32;20094;-57
2022/10/17 10:25:38;;;;;;;0.05;0.05;;;;;;;21.39;40.25;102081.94;18305760;32;20120;-58
2022/10/17 10:35:41;;;;;;;0.93;0.32;;;;;;;21.84;39.59;102075.72;18306624;32;20105;-57
2022/10/17 10:45:46;;;;;;;0.25;0.20;;;;;;;22.11;38.95;102078.63;18304407;32;20151;-58
2022/10/17 10:55:53;;;;;;;0.50;0.50;;;;;;;22.47;38.18;102052.00;18305696;32;20169;-57
2022/10/17 11:06:02;;;;;;;0.10;0.10;;;;;;;22.83;37.22;102046.63;18305027;32;20129;-57
2022/10/17 11:16:26;;;;;;;0.10;0.10;;;;;;;22.60;36.88;102047.25;18304550;32;20112;-57
2022/10/17 11:26:35;;;;;;;1.08;0.35;;;;;;;22.85;36.45;102044.78;18299412;32;155321;-57
2022/10/17 11:36:40;;;;;;;0.08;0.05;;;;;;;23.36;35.32;102036.28;18304542;32;20113;-58
2022/10/17 11:46:46;;;;;;;0.10;0.10;;;;;;;22.65;36.89;102031.16;18304393;32;20116;-58
2022/10/17 11:56:53;;;;;;;0.13;0.13;;;;;;;23.15;35.31;102025.34;18302680;32;20108;-58
2022/10/17 12:07:09;;;;;;;0.20;0.20;;;;;;;23.00;35.48;102021.34;18302150;32;20116;-58
2022/10/17 12:17:25;;;;;;;0.10;0.10;;;;;;;23.18;34.98;102019.91;18301207;32;20458;-58
2022/10/17 12:27:36;;;;;;;0.10;0.10;;;;;;;22.73;36.63;102008.78;18291916;32;20097;-56
2022/10/17 12:38:28;;;;;;;0.85;0.28;;;;;;;22.65;35.58;101991.25;18299576;32;20094;-58
2022/10/17 12:49:06;;;;;;;1.08;0.55;;;;;;;22.87;35.13;101984.41;18293327;32;20090;-57
2022/10/17 12:59:15;;;;;;;0.20;0.20;;;;;;;23.25;34.68;101983.31;18038026;32;20494;-57
2022/10/17 13:09:25;;;;;;;0.25;0.20;;;;;;;23.31;36.28;101982.28;18039897;32;20133;-57
2022/10/17 13:19:31;;;;;;;0.10;0.10;;;;;;;23.44;35.73;101969.47;18030461;32;20127;-57
2022/10/17 13:29:35;;;;;;;0.10;0.10;;;;;;;23.15;35.24;101974.72;18126646;32;20133;-57
2022/10/17 13:39:41;;;;;;;0.10;0.10;;;;;;;23.42;35.16;101964.19;18298796;32;20771;-58
2022/10/17 13:49:58;;;;;;;0.25;0.25;;;;;;;23.67;35.19;101953.59;18280128;32;20150;-57
2022/10/17 14:00:06;;;;;;;0.20;0.20;;;;;;;23.78;34.57;101952.34;18307506;32;20120;-57
2022/10/17 14:10:20;;;;;;;0.10;0.10;;;;;;;23.56;35.26;101948.59;18281951;32;20101;-57
2022/10/17 14:20:24;;;;;;;0.20;0.20;;;;;;;23.35;35.34;101947.53;18304206;32;20108;-57
2022/10/17 14:30:50;;;;;;;0.00;0.00;;;;;;;23.68;33.65;101930.47;18307115;32;20141;-57
2022/10/17 14:41:03;;;;;;;0.10;0.10;;;;;;;23.25;35.64;101946.03;18295863;32;20114;-57
2022/10/17 14:51:26;;;;;;;0.20;0.20;;;;;;;22.94;36.41;101946.94;18303062;32;20124;-57
2022/10/17 15:01:43;;;;;;;0.20;0.10;;;;;;;22.73;37.38;101931.59;18304079;32;20128;-57
2022/10/17 15:11:46;;;;;;;0.55;0.17;;;;;;;22.38;38.69;101932.53;18304804;32;20713;-57
2022/10/17 15:21:51;;;;;;;0.10;0.10;;;;;;;22.12;39.83;101947.41;18253392;32;20086;-56
2022/10/17 15:31:54;;;;;;;0.13;0.13;;;;;;;21.53;42.98;101936.44;18301131;32;20101;-59
2022/10/17 15:41:58;;;;;;;0.10;0.10;;;;;;;21.00;46.04;101947.34;18300619;32;20116;-59
2022/10/17 15:52:01;;;;;;;0.10;0.10;;;;;;;20.42;48.15;101963.50;18300427;32;20200;-59
2022/10/17 16:02:11;;;;;;;0.28;0.28;;;;;;;19.95;49.01;101970.47;18299919;32;20149;-59
2022/10/17 16:12:17;;;;;;;0.98;0.88;;;;;;;19.38;50.62;101982.78;18302015;32;20093;-59
2022/10/17 16:22:32;;;;;;;0.40;0.40;;;;;;;18.84;52.15;101984.34;18302766;32;20105;-57
2022/10/17 16:32:35;;;;;;;0.20;0.20;;;;;;;18.42;53.12;101990.06;18281529;32;20106;-57
2022/10/17 16:42:40;;;;;;;0.62;0.50;;;;;;;17.94;54.28;101995.72;18301088;32;20110;-57
2022/10/17 16:52:43;;;;;;;0.40;0.40;;;;;;;17.55;54.82;102011.84;18304541;32;20098;-57
2022/10/17 17:02:48;;;;;;;0.30;0.30;;;;;;;17.21;55.71;102017.28;18303546;32;20443;-59
2022/10/17 17:12:52;;;;;;;0.30;0.30;;;;;;;16.74;56.89;102027.91;18308828;32;20097;-59
2022/10/17 17:22:57;;;;;;;0.28;0.28;;;;;;;16.50;57.53;102036.75;18280933;32;20741;-59
2022/10/17 17:33:00;;;;;;;0.60;0.60;;;;;;;16.07;58.57;102033.22;18302688;32;20099;-59
2022/10/17 17:43:04;;;;;;;0.50;0.50;;;;;;;15.82;58.93;102042.81;18306487;32;20355;-59
2022/10/17 17:53:08;;;;;;;0.40;0.40;;;;;;;15.57;59.31;102034.84;18305146;32;20455;-59
2022/10/17 18:03:13;;;;;;;0.43;0.43;;;;;;;15.21;60.56;102047.84;18306036;32;20094;-59
2022/10/17 18:13:16;;;;;;;0.40;0.40;;;;;;;15.04;60.99;102047.78;18304672;32;20115;-60
2022/10/17 18:23:21;;;;;;;0.70;0.70;;;;;;;14.84;61.47;102039.75;18304744;32;20346;-59
2022/10/17 18:33:24;;;;;;;0.40;0.40;;;;;;;14.61;62.05;102044.84;18304059;32;20453;-59
2022/10/17 18:43:29;;;;;;;0.37;0.37;;;;;;;14.38;62.25;102035.03;18304675;32;20093;-58
2022/10/17 18:53:32;;;;;;;0.57;0.57;;;;;;;14.24;62.32;102033.19;18306558;32;20144;-59
2022/10/17 19:03:37;;;;;;;0.40;0.40;;;;;;;14.11;62.88;102041.78;18291474;32;20116;-59
2022/10/17 19:13:41;;;;;;;0.50;0.50;;;;;;;13.89;63.28;102041.59;18301869;32;20090;-59
2022/10/17 19:23:49;;;;;;;0.75;0.60;;;;;;;13.81;63.43;102038.00;18302714;32;20111;-59
2022/10/17 19:33:53;;;;;;;1.08;0.60;;;;;;;13.71;63.37;102034.41;18300920;32;20175;-58
2022/10/17 19:43:58;;;;;;;0.57;0.57;;;;;;;13.37;64.39;102047.97;18303177;32;20090;-59
2022/10/17 19:54:01;;;;;;;0.73;0.73;;;;;;;13.38;63.81;102046.22;18302376;32;20115;-58
2022/10/17 20:04:06;;;;;;;0.50;0.50;;;;;;;13.30;63.96;102035.66;18301617;32;20093;-59
2022/10/17 20:14:09;;;;;;;0.40;0.40;;;;;;;13.06;64.80;102046.69;18301745;32;20443;-58
2022/10/17 20:24:15;;;;;;;1.52;1.42;;;;;;;12.92;65.20;102052.59;18305595;32;20435;-59
2022/10/17 20:34:19;;;;;;;0.50;0.50;;;;;;;12.80;65.22;102055.06;18304259;32;20101;-59
2022/10/17 20:44:23;;;;;;;4.80;1.80;;;;;;;12.76;64.65;102046.25;18303881;32;20114;-58
2022/10/17 20:54:27;;;;;;;0.30;0.30;;;;;;;12.70;64.76;102041.81;18304862;32;20382;-59
2022/10/17 21:04:32;;;;;;;0.50;0.50;;;;;;;12.60;64.85;102046.00;18305821;32;20184;-60
2022/10/17 21:14:49;;;;;;;0.80;0.80;;;;;;;12.61;64.44;102045.19;18305913;32;20480;-58
2022/10/17 21:24:53;;;;;;;0.80;0.80;;;;;;;12.56;64.41;102044.22;18306596;32;20101;-59
2022/10/17 21:34:56;;;;;;;0.47;0.47;;;;;;;12.27;65.21;102047.25;18303454;32;20113;-59
2022/10/17 21:45:01;;;;;;;0.50;0.50;;;;;;;12.16;65.45;102047.03;18302074;32;20192;-59
2022/10/17 21:55:17;;;;;;;0.68;0.68;;;;;;;12.07;65.74;102045.16;18304252;32;20082;-59
2022/10/17 22:05:22;;;;;;;0.70;0.70;;;;;;;11.99;66.27;102036.25;18301198;32;20148;-59
2022/10/17 22:15:25;;;;;;;1.00;1.00;;;;;;;11.94;65.61;102035.25;18305310;32;20093;-58
2022/10/17 22:25:30;;;;;;;0.60;0.60;;;;;;;11.59;66.39;102032.88;18307026;32;20141;-58
2022/10/17 22:35:33;;;;;;;2.90;1.77;;;;;;;11.83;65.08;102021.09;18305826;32;20113;-58
2022/10/17 22:45:37;;;;;;;0.73;0.73;;;;;;;11.76;64.89;102026.25;18265424;32;20141;-59
2022/10/17 22:55:40;;;;;;;1.48;1.33;;;;;;;11.65;64.95;102032.97;18261955;32;20444;-58
2022/10/17 23:05:45;;;;;;;5.25;1.62;;;;;;;11.45;65.17;102028.22;18306385;32;20385;-58
2022/10/17 23:15:50;;;;;;;1.35;1.25;;;;;;;11.28;65.46;102019.16;18273756;32;20425;-58
2022/10/17 23:25:55;;;;;;;1.40;1.30;;;;;;;11.28;65.42;102017.44;18241278;32;20098;-58
2022/10/17 23:35:59;;;;;;;1.30;1.25;;;;;;;11.04;66.35;102015.19;18241208;32;20106;-58
2022/10/17 23:46:05;;;;;;;0.82;0.70;;;;;;;11.04;65.66;102004.72;18241688;32;20106;-58
2022/10/17 23:56:10;;;;;;;1.42;1.35;;;;;;;10.90;65.31;102005.28;18238644;32;20134;-58
